createdAt,value
2019-01-23T00:00:42.316Z,20.80
2019-01-23T00:03:11.478Z,21.57
2019-01-23T00:05:42.933Z,21.23
2019-01-23T00:08:12.083Z,20.80
2019-01-23T00:10:41.211Z,20.57
2019-01-23T00:13:10.335Z,20.73
2019-01-23T00:15:39.495Z,20.07
2019-01-23T00:18:08.659Z,20.67
2019-01-23T00:20:37.817Z,20.57
2019-01-23T00:23:06.948Z,20.60
2019-01-23T00:25:36.130Z,20.97
2019-01-23T00:28:06.472Z,21.80
2019-01-23T00:30:35.684Z,22.03
2019-01-23T00:33:06.349Z,20.13
2019-01-23T00:35:36.575Z,21.10
2019-01-23T00:38:06.968Z,21.73
2019-01-23T00:40:36.096Z,20.03
2019-01-23T00:43:06.043Z,21.07
2019-01-23T00:45:35.172Z,20.27
2019-01-23T00:48:04.335Z,21.40
2019-01-23T00:50:33.460Z,20.63
2019-01-23T00:53:02.557Z,20.43
2019-01-23T00:55:31.737Z,20.90
2019-01-23T00:58:01.194Z,21.23
2019-01-23T01:00:30.371Z,20.23
2019-01-23T01:03:00.492Z,20.90
2019-01-23T01:05:29.684Z,20.93
2019-01-23T01:08:00.112Z,20.33
2019-01-23T01:10:30.792Z,21.73
2019-01-23T01:13:00.042Z,21.00
2019-01-23T01:15:29.310Z,21.77
2019-01-23T01:17:58.506Z,21.07
2019-01-23T01:20:27.696Z,24.03
2019-01-23T01:22:57.884Z,20.80
2019-01-23T01:25:27.060Z,22.13
2019-01-23T01:27:56.219Z,21.37
2019-01-23T01:30:26.649Z,21.73
2019-01-23T01:32:55.824Z,22.23
2019-01-23T01:35:25.276Z,20.93
2019-01-23T01:37:54.787Z,21.07
2019-01-23T01:40:24.787Z,22.37
2019-01-23T01:42:54.363Z,21.77
2019-01-23T01:45:26.543Z,20.73
2019-01-23T01:47:55.540Z,19.93
2019-01-23T01:50:25.134Z,22.20
2019-01-23T01:52:54.331Z,21.07
2019-01-23T01:55:23.562Z,20.53
2019-01-23T01:57:56.006Z,22.10
2019-01-23T02:00:25.472Z,22.50
2019-01-23T02:02:54.697Z,22.83
2019-01-23T02:05:24.162Z,21.17
2019-01-23T02:07:53.563Z,22.77
2019-01-23T02:10:22.789Z,22.03
2019-01-23T02:12:52.876Z,22.87
2019-01-23T02:15:22.129Z,21.50
2019-01-23T02:17:54.268Z,21.87
2019-01-23T02:20:27.487Z,23.23
2019-01-23T02:22:56.766Z,23.57
2019-01-23T02:25:25.911Z,21.63
2019-01-23T02:27:55.369Z,21.87
2019-01-23T02:30:25.277Z,21.70
2019-01-23T02:32:54.509Z,23.53
2019-01-23T02:35:23.992Z,23.03
2019-01-23T02:37:53.558Z,21.17
2019-01-23T02:40:24.481Z,22.67
2019-01-23T02:42:53.661Z,22.43
2019-01-23T02:45:24.398Z,21.37
2019-01-23T02:47:53.622Z,21.00
2019-01-23T02:50:22.864Z,21.93
2019-01-23T02:52:52.057Z,20.87
2019-01-23T02:55:21.204Z,21.60
2019-01-23T02:57:50.429Z,21.30
2019-01-23T03:00:20.613Z,21.63
2019-01-23T03:02:50.060Z,21.47
2019-01-23T03:05:20.261Z,20.37
2019-01-23T03:07:49.484Z,20.50
2019-01-23T03:10:22.772Z,20.33
2019-01-23T03:12:53.458Z,21.33
2019-01-23T03:15:22.645Z,21.30
2019-01-23T03:17:51.931Z,20.87
2019-01-23T03:20:21.168Z,19.33
2019-01-23T03:22:50.351Z,20.67
2019-01-23T03:25:19.809Z,20.87
2019-01-23T03:27:49.883Z,21.77
2019-01-23T03:30:21.963Z,21.00
2019-01-23T03:32:51.507Z,20.47
2019-01-23T03:35:20.683Z,20.87
2019-01-23T03:37:49.934Z,21.43
2019-01-23T03:40:20.575Z,20.67
2019-01-23T03:42:51.004Z,22.07
2019-01-23T03:45:20.489Z,21.60
2019-01-23T03:47:50.040Z,21.00
2019-01-23T03:50:20.830Z,22.00
2019-01-23T03:52:50.099Z,21.20
2019-01-23T03:55:19.794Z,21.37
2019-01-23T03:57:49.320Z,20.73
2019-01-23T04:00:22.784Z,21.77
2019-01-23T04:02:52.843Z,20.70
2019-01-23T04:05:22.083Z,20.97
2019-01-23T04:07:51.888Z,20.57
2019-01-23T04:10:21.476Z,21.43
2019-01-23T04:12:50.963Z,20.50
2019-01-23T04:15:20.294Z,19.67
2019-01-23T04:17:49.573Z,20.37
2019-01-23T04:20:21.011Z,20.37
2019-01-23T04:22:50.595Z,21.87
2019-01-23T04:25:19.828Z,20.10
2019-01-23T04:27:49.703Z,20.90
2019-01-23T04:30:23.581Z,19.87
2019-01-23T04:32:52.826Z,20.70
2019-01-23T04:35:22.387Z,19.27
2019-01-23T04:37:52.033Z,20.40
2019-01-23T04:40:21.264Z,21.37
2019-01-23T04:42:50.570Z,19.90
2019-01-23T04:45:19.847Z,20.60
2019-01-23T04:47:49.661Z,20.00
2019-01-23T04:50:20.145Z,21.27
2019-01-23T04:53:09.366Z,21.33
2019-01-23T04:55:40.869Z,19.47
2019-01-23T04:58:10.248Z,20.03
2019-01-23T05:00:39.467Z,21.07
2019-01-23T05:03:08.613Z,20.87
2019-01-23T05:05:37.936Z,19.57
2019-01-23T05:08:07.610Z,20.47
2019-01-23T05:10:36.834Z,20.40
2019-01-23T05:13:06.621Z,20.53
2019-01-23T05:15:36.269Z,21.10
2019-01-23T05:18:06.007Z,20.47
2019-01-23T05:20:35.262Z,20.83
2019-01-23T05:23:04.427Z,20.70
2019-01-23T05:25:33.580Z,21.53
2019-01-23T05:28:02.763Z,20.80
2019-01-23T05:30:32.004Z,20.57
2019-01-23T05:33:01.228Z,21.00
2019-01-23T05:35:31.479Z,20.63
2019-01-23T05:38:00.760Z,20.77
2019-01-23T05:40:29.965Z,19.83
2019-01-23T05:42:59.230Z,21.10
2019-01-23T05:45:28.447Z,19.83
2019-01-23T05:47:59.606Z,21.27
2019-01-23T05:50:32.211Z,21.13
2019-01-23T05:53:02.045Z,20.53
2019-01-23T05:55:31.242Z,20.47
2019-01-23T05:58:00.467Z,20.50
2019-01-23T06:00:29.606Z,20.23
2019-01-23T06:03:01.940Z,20.97
2019-01-23T06:05:31.101Z,19.80
2019-01-23T06:08:00.314Z,19.20
2019-01-23T06:10:29.468Z,19.43
2019-01-23T06:12:58.692Z,19.17
2019-01-23T06:15:27.899Z,20.70
2019-01-23T06:17:58.852Z,20.07
2019-01-23T06:20:28.119Z,19.77
2019-01-23T06:22:57.438Z,20.70
2019-01-23T06:25:26.681Z,19.43
2019-01-23T06:27:56.120Z,20.67
2019-01-23T06:30:26.443Z,19.30
2019-01-23T06:32:55.693Z,20.23
2019-01-23T06:35:24.904Z,19.43
2019-01-23T06:37:54.171Z,20.37
2019-01-23T06:40:23.356Z,20.30
2019-01-23T06:42:52.535Z,20.50
2019-01-23T06:45:21.881Z,20.37
2019-01-23T06:47:51.330Z,19.97
2019-01-23T06:50:21.884Z,19.07
2019-01-23T06:52:51.241Z,18.80
2019-01-23T06:55:20.660Z,18.33
2019-01-23T06:57:49.919Z,19.50
2019-01-23T07:00:23.812Z,18.67
2019-01-23T07:02:54.478Z,19.63
2019-01-23T07:05:25.408Z,20.27
2019-01-23T07:07:54.615Z,19.80
2019-01-23T07:10:27.558Z,19.33
2019-01-23T07:12:56.795Z,19.13
2019-01-23T07:15:26.096Z,19.90
2019-01-23T07:17:55.536Z,21.13
2019-01-23T07:20:27.258Z,20.63
2019-01-23T07:22:56.643Z,21.60
2019-01-23T07:25:27.929Z,20.80
2019-01-23T07:27:57.184Z,20.20
2019-01-23T07:30:34.831Z,20.57
2019-01-23T07:33:04.121Z,21.63
2019-01-23T07:35:33.508Z,21.50
2019-01-23T07:38:02.894Z,21.23
2019-01-23T07:40:32.182Z,21.73
2019-01-23T07:43:01.484Z,20.87
2019-01-23T07:45:30.885Z,21.03
2019-01-23T07:48:00.277Z,21.30
2019-01-23T07:50:29.711Z,20.87
2019-01-23T07:52:59.388Z,21.30
2019-01-23T07:55:28.708Z,20.93
2019-01-23T07:57:57.978Z,21.07
2019-01-23T08:00:31.625Z,20.40
2019-01-23T08:02:58.572Z,21.03
2019-01-23T08:05:27.934Z,21.07
2019-01-23T08:07:57.226Z,20.27
2019-01-23T08:10:26.541Z,21.77
2019-01-23T08:12:55.895Z,20.80
2019-01-23T08:15:30.077Z,19.80
2019-01-23T08:17:59.495Z,20.53
2019-01-23T08:20:29.073Z,20.93
2019-01-23T08:22:58.418Z,21.60
2019-01-23T08:25:27.809Z,21.37
2019-01-23T08:27:57.066Z,21.17
2019-01-23T08:30:26.402Z,21.20
2019-01-23T08:32:55.747Z,21.37
2019-01-23T08:35:25.107Z,21.10
2019-01-23T08:37:54.592Z,20.37
2019-01-23T08:43:23.288Z,20.97
2019-01-23T08:45:58.428Z,27.80
2019-01-23T08:58:47.649Z,19.57
2019-01-23T09:08:56.747Z,19.67
2019-01-23T09:14:55.435Z,19.70
2019-01-23T09:22:14.543Z,20.37
2019-01-23T09:25:37.213Z,19.83
2019-01-23T09:28:06.674Z,20.23
2019-01-23T09:30:45.287Z,19.43
2019-01-23T09:34:02.414Z,21.87
2019-01-23T09:37:34.126Z,21.80
2019-01-23T09:40:17.948Z,20.57
2019-01-23T09:43:36.866Z,21.60
2019-01-23T09:46:38.380Z,20.47
2019-01-23T09:49:49.207Z,21.50
2019-01-23T09:52:57.653Z,21.17
2019-01-23T09:55:28.269Z,21.27
2019-01-23T09:58:00.299Z,21.27
2019-01-23T10:00:31.817Z,21.70
2019-01-23T10:03:01.459Z,22.37
2019-01-23T10:05:31.746Z,21.67
2019-01-23T10:08:01.260Z,22.07
2019-01-23T10:10:31.883Z,21.50
2019-01-23T10:13:01.365Z,21.47
2019-01-23T10:16:00.677Z,21.37
2019-01-23T10:18:30.138Z,20.97
2019-01-23T10:20:59.560Z,20.53
2019-01-23T10:23:28.887Z,20.80
2019-01-23T10:25:58.307Z,19.30
2019-01-23T10:28:28.547Z,19.37
2019-01-23T10:30:57.981Z,24.15
2019-01-23T10:33:27.649Z,21.40
2019-01-23T10:35:57.494Z,20.80
2019-01-23T10:38:26.958Z,19.67
2019-01-23T10:40:56.616Z,20.37
2019-01-23T10:43:26.065Z,19.67
2019-01-23T10:45:55.726Z,20.47
2019-01-23T10:48:25.457Z,21.90
2019-01-23T10:50:54.929Z,19.10
2019-01-23T10:53:25.081Z,19.77
2019-01-23T10:55:54.755Z,21.37
2019-01-23T10:58:38.205Z,19.37
2019-01-23T11:01:13.487Z,18.43
2019-01-23T11:03:41.325Z,20.50
2019-01-23T11:06:13.443Z,19.13
2019-01-23T11:08:47.826Z,19.63
2019-01-23T11:11:17.889Z,20.17
2019-01-23T11:13:53.292Z,18.80
2019-01-23T11:16:32.986Z,19.50
2019-01-23T11:19:07.127Z,18.00
2019-01-23T11:21:36.716Z,18.10
2019-01-23T11:24:11.103Z,19.67
2019-01-23T11:28:35.731Z,18.50
2019-01-23T11:30:24.189Z,18.90
2019-01-23T11:36:01.409Z,19.30
2019-01-23T11:38:30.906Z,19.30
2019-01-23T11:41:00.504Z,18.07
2019-01-23T11:43:30.087Z,19.37
2019-01-23T11:45:59.918Z,18.77
2019-01-23T11:48:29.644Z,18.50
2019-01-23T11:51:09.833Z,18.70
2019-01-23T11:53:39.345Z,18.63
2019-01-23T11:56:08.900Z,18.00
2019-01-23T11:58:40.798Z,20.13
2019-01-23T12:01:10.283Z,19.70
2019-01-23T12:03:39.635Z,19.83
2019-01-23T12:06:09.180Z,19.63
2019-01-23T12:08:38.422Z,20.13
2019-01-23T12:11:07.585Z,19.13
2019-01-23T12:13:36.762Z,19.90
2019-01-23T12:16:06.002Z,21.17
2019-01-23T12:18:35.348Z,19.67
2019-01-23T12:21:04.643Z,19.80
2019-01-23T12:23:34.040Z,21.33
2019-01-23T12:26:03.927Z,19.40
2019-01-23T12:28:33.276Z,20.57
2019-01-23T12:31:02.673Z,21.53
2019-01-23T12:33:32.018Z,20.20
2019-01-23T12:36:01.454Z,21.50
2019-01-23T12:38:30.750Z,21.13
2019-01-23T12:41:00.151Z,20.37
2019-01-23T12:43:29.563Z,20.43
2019-01-23T12:45:59.852Z,20.03
2019-01-23T12:48:29.239Z,19.77
2019-01-23T12:51:02.173Z,19.77
2019-01-23T12:53:31.513Z,20.20
2019-01-23T12:56:00.832Z,20.83
2019-01-23T12:58:30.216Z,19.67
2019-01-23T13:01:00.142Z,19.80
2019-01-23T13:03:29.492Z,18.57
2019-01-23T13:05:58.898Z,20.70
2019-01-23T13:08:28.353Z,20.07
2019-01-23T13:10:57.901Z,20.10
2019-01-23T13:13:27.212Z,19.97
2019-01-23T13:15:56.665Z,20.40
2019-01-23T13:18:26.083Z,20.17
2019-01-23T13:20:55.581Z,20.47
2019-01-23T13:23:25.131Z,21.13
2019-01-23T13:25:54.811Z,20.77
2019-01-23T13:28:24.283Z,19.80
2019-01-23T13:30:53.562Z,21.37
2019-01-23T13:33:22.998Z,20.47
2019-01-23T13:35:52.653Z,21.47
2019-01-23T13:38:22.231Z,20.27
2019-01-23T13:40:51.749Z,21.20
2019-01-23T13:43:21.253Z,21.67
2019-01-23T13:46:20.213Z,20.80
2019-01-23T13:49:13.417Z,21.50
2019-01-23T13:51:59.118Z,21.30
2019-01-23T13:55:41.991Z,20.30
2019-01-23T13:57:26.955Z,19.97
2019-01-23T13:59:56.736Z,21.00
2019-01-23T14:02:41.940Z,21.83
2019-01-23T14:09:16.095Z,21.90
2019-01-23T14:14:42.249Z,21.37
2019-01-23T14:20:35.727Z,19.97
2019-01-23T14:23:05.120Z,21.90
2019-01-23T14:25:34.913Z,22.07
2019-01-23T14:28:04.448Z,22.00
2019-01-23T14:30:46.998Z,22.00
2019-01-23T14:33:48.131Z,20.63
2019-01-23T14:36:17.411Z,28.55
2019-01-23T14:38:46.659Z,22.87
2019-01-23T14:41:16.111Z,21.73
2019-01-23T14:43:45.353Z,22.63
2019-01-23T14:46:14.572Z,22.13
2019-01-23T14:48:43.795Z,20.97
2019-01-23T14:51:13.025Z,20.67
2019-01-23T14:53:42.236Z,22.07
2019-01-23T14:56:11.417Z,21.37
2019-01-23T14:58:40.638Z,21.20
2019-01-23T15:01:09.843Z,21.40
2019-01-23T15:03:39.012Z,21.37
2019-01-23T15:06:08.177Z,21.00
2019-01-23T15:08:39.429Z,20.57
2019-01-23T15:11:08.591Z,20.73
2019-01-23T15:13:37.742Z,21.57
2019-01-23T15:16:06.909Z,21.50
2019-01-23T15:18:36.059Z,22.17
2019-01-23T15:21:05.251Z,20.63
2019-01-23T15:23:34.409Z,19.63
2019-01-23T15:26:03.620Z,22.40
2019-01-23T15:28:32.793Z,20.83
2019-01-23T15:31:01.968Z,20.30
2019-01-23T15:33:31.166Z,21.00
2019-01-23T15:36:01.335Z,20.33
2019-01-23T15:38:30.559Z,20.93
2019-01-23T15:40:59.747Z,20.13
2019-01-23T15:43:28.896Z,20.90
2019-01-23T15:45:58.062Z,22.47
2019-01-23T15:48:27.373Z,21.67
2019-01-23T15:50:57.697Z,21.97
2019-01-23T15:53:26.975Z,21.33
2019-01-23T15:55:57.144Z,22.67
2019-01-23T15:58:26.457Z,19.47
2019-01-23T16:00:55.672Z,19.43
2019-01-23T16:03:25.538Z,19.90
2019-01-23T16:05:54.708Z,20.43
2019-01-23T16:08:23.902Z,22.60
2019-01-23T16:10:53.416Z,19.90
2019-01-23T16:13:22.584Z,21.77
2019-01-23T16:15:51.904Z,21.90
2019-01-23T16:18:21.058Z,22.80
2019-01-23T16:20:50.543Z,22.03
2019-01-23T16:23:19.786Z,22.03
2019-01-23T16:25:48.975Z,22.27
2019-01-23T16:28:18.268Z,23.27
2019-01-23T16:30:47.471Z,21.43
2019-01-23T16:33:16.655Z,21.73
2019-01-23T16:35:47.204Z,20.60
2019-01-23T16:38:16.535Z,21.47
2019-01-23T16:40:45.714Z,19.83
2019-01-23T16:43:14.905Z,20.73
2019-01-23T16:45:44.425Z,23.03
2019-01-23T16:48:13.604Z,20.53
2019-01-23T16:50:42.736Z,20.80
2019-01-23T16:53:11.987Z,20.07
2019-01-23T16:55:41.154Z,21.03
2019-01-23T16:58:10.859Z,19.93
2019-01-23T17:00:40.088Z,22.97
2019-01-23T17:03:09.368Z,21.47
2019-01-23T17:05:38.507Z,20.73
2019-01-23T17:08:08.626Z,21.33
2019-01-23T17:10:37.860Z,22.37
2019-01-23T17:13:07.231Z,22.17
2019-01-23T17:15:36.555Z,21.77
2019-01-23T17:18:07.160Z,22.37
2019-01-23T17:20:41.768Z,22.30
2019-01-23T17:23:10.921Z,21.37
2019-01-23T17:25:40.071Z,21.70
2019-01-23T17:28:10.427Z,20.50
2019-01-23T17:30:39.761Z,23.00
2019-01-23T17:33:09.011Z,21.97
2019-01-23T17:35:38.232Z,21.63
2019-01-23T17:38:07.555Z,21.67
2019-01-23T17:40:36.799Z,19.43
2019-01-23T17:43:05.998Z,20.67
2019-01-23T17:45:37.485Z,20.97
2019-01-23T17:48:08.593Z,20.33
2019-01-23T17:50:37.728Z,20.23
2019-01-23T17:53:06.989Z,20.73
2019-01-23T17:55:37.641Z,18.73
2019-01-23T17:58:09.024Z,20.40
2019-01-23T18:00:40.711Z,22.67
2019-01-23T18:03:09.408Z,19.77
2019-01-23T18:05:38.602Z,22.87
2019-01-23T18:08:07.839Z,21.57
2019-01-23T18:10:37.007Z,22.60
2019-01-23T18:13:06.343Z,20.43
2019-01-23T18:15:35.857Z,20.20
2019-01-23T18:18:07.234Z,19.90
2019-01-23T18:20:36.226Z,20.23
2019-01-23T18:23:05.475Z,20.40
2019-01-23T18:25:34.697Z,20.67
2019-01-23T18:28:03.891Z,21.87
2019-01-23T18:30:39.802Z,20.03
2019-01-23T18:33:12.648Z,21.60
2019-01-23T18:36:16.851Z,21.20
2019-01-23T18:39:08.820Z,21.43
2019-01-23T18:41:57.580Z,20.53
2019-01-23T18:44:55.816Z,21.17
2019-01-23T18:47:58.296Z,20.53
2019-01-23T18:50:53.294Z,21.03
2019-01-23T18:53:22.474Z,19.40
2019-01-23T18:55:52.776Z,21.47
2019-01-23T18:58:21.975Z,21.07
2019-01-23T19:00:51.146Z,20.80
2019-01-23T19:03:20.405Z,21.23
2019-01-23T19:05:49.610Z,22.70
2019-01-23T19:08:18.969Z,22.50
2019-01-23T19:10:48.203Z,21.07
2019-01-23T19:13:17.454Z,22.80
2019-01-23T19:15:47.205Z,22.37
2019-01-23T19:18:16.623Z,21.73
2019-01-23T19:20:45.832Z,22.60
2019-01-23T19:23:15.124Z,21.47
2019-01-23T19:25:47.536Z,22.93
2019-01-23T19:28:16.714Z,22.70
2019-01-23T19:30:46.011Z,22.20
2019-01-23T19:33:15.307Z,21.57
2019-01-23T19:35:45.697Z,21.37
2019-01-23T19:38:15.010Z,22.73
2019-01-23T19:40:44.231Z,23.13
2019-01-23T19:43:13.769Z,22.63
2019-01-23T19:45:42.996Z,21.30
2019-01-23T19:48:12.347Z,22.43
2019-01-23T19:50:41.682Z,23.50
2019-01-23T19:53:10.933Z,23.37
2019-01-23T19:55:40.291Z,23.37
2019-01-23T19:58:09.526Z,21.33
2019-01-23T20:00:38.807Z,20.70
2019-01-23T20:03:08.304Z,23.23
2019-01-23T20:05:37.536Z,21.80
2019-01-23T20:08:07.522Z,22.47
2019-01-23T20:10:36.964Z,21.63
2019-01-23T20:13:06.403Z,23.47
2019-01-23T20:15:35.655Z,24.30
2019-01-23T20:18:07.305Z,23.17
2019-01-23T20:20:36.557Z,21.97
2019-01-23T20:23:05.748Z,23.37
2019-01-23T20:25:35.308Z,22.23
2019-01-23T20:28:07.551Z,24.57
2019-01-23T20:30:39.433Z,22.90
2019-01-23T20:33:08.686Z,23.00
2019-01-23T20:35:37.894Z,25.00
2019-01-23T20:38:07.223Z,24.73
2019-01-23T20:40:36.518Z,25.47
2019-01-23T20:43:06.443Z,24.47
2019-01-23T20:45:35.743Z,25.03
2019-01-23T20:48:06.408Z,24.67
2019-01-23T20:50:35.891Z,25.13
2019-01-23T20:53:05.283Z,25.40
2019-01-23T20:55:34.494Z,23.03
2019-01-23T20:58:03.729Z,25.07
2019-01-23T21:00:33.671Z,22.60
2019-01-23T21:03:02.941Z,25.30
2019-01-23T21:05:32.924Z,26.03
2019-01-23T21:08:02.100Z,26.07
2019-01-23T21:10:31.324Z,24.63
2019-01-23T21:13:00.541Z,23.67
2019-01-23T21:15:31.139Z,25.87
2019-01-23T21:18:00.848Z,26.37
2019-01-23T21:20:32.783Z,24.50
2019-01-23T21:23:02.145Z,26.07
2019-01-23T21:25:31.408Z,26.90
2019-01-23T21:28:00.678Z,24.47
2019-01-23T21:30:29.873Z,26.83
2019-01-23T21:32:59.079Z,25.90
2019-01-23T21:35:28.519Z,23.63
2019-01-23T21:37:58.079Z,25.53
2019-01-23T21:40:32.583Z,26.80
2019-01-23T21:43:02.859Z,26.37
2019-01-23T21:45:34.484Z,26.80
2019-01-23T21:48:03.815Z,25.63
2019-01-23T21:50:33.083Z,25.90
2019-01-23T21:53:02.382Z,25.07
2019-01-23T21:55:31.550Z,25.40
2019-01-23T21:58:00.869Z,25.93
2019-01-23T22:00:51.156Z,26.43
2019-01-23T22:03:20.376Z,27.00
2019-01-23T22:05:49.623Z,27.13
2019-01-23T22:08:19.168Z,25.10
2019-01-23T22:10:49.536Z,25.83
2019-01-23T22:13:18.726Z,25.20
2019-01-23T22:15:47.926Z,26.30
2019-01-23T22:18:19.743Z,27.17
2019-01-23T22:20:49.758Z,26.40
2019-01-23T22:23:18.912Z,26.03
2019-01-23T22:25:48.102Z,26.73
2019-01-23T22:28:17.310Z,26.73
2019-01-23T22:30:46.482Z,27.17
2019-01-23T22:33:15.767Z,26.00
2019-01-23T22:35:44.937Z,26.40
2019-01-23T22:38:14.220Z,25.23
2019-01-23T22:40:45.055Z,28.57
2019-01-23T22:43:15.168Z,26.43
2019-01-23T22:45:44.477Z,27.07
2019-01-23T22:48:13.705Z,28.47
2019-01-23T22:50:43.027Z,27.70
2019-01-23T22:53:12.286Z,27.70
2019-01-23T22:55:41.521Z,26.87
2019-01-23T22:58:10.853Z,27.33
2019-01-23T23:01:14.182Z,27.30
2019-01-23T23:03:43.467Z,27.83
2019-01-23T23:06:12.645Z,25.63
2019-01-23T23:08:44.149Z,26.90
2019-01-23T23:11:13.355Z,26.67
2019-01-23T23:13:42.587Z,27.60
2019-01-23T23:16:12.326Z,28.60
2019-01-23T23:18:41.849Z,28.20
2019-01-23T23:21:11.075Z,25.87
2019-01-23T23:23:40.349Z,27.47
2019-01-23T23:26:09.537Z,27.87
2019-01-23T23:28:38.717Z,27.63
2019-01-23T23:31:07.977Z,27.30
2019-01-23T23:33:37.287Z,27.47
2019-01-23T23:36:06.450Z,27.37
2019-01-23T23:38:37.276Z,26.50
2019-01-23T23:41:07.352Z,26.77
2019-01-23T23:43:36.617Z,25.20
2019-01-23T23:46:05.826Z,27.30
2019-01-23T23:48:35.089Z,27.30
2019-01-23T23:51:04.397Z,28.50
2019-01-23T23:53:33.703Z,27.47
2019-01-23T23:56:03.013Z,25.70
2019-01-23T23:58:32.237Z,27.20
